sensor_id;sensor_type;location;lat;lon;timestamp;pressure;altitude;pressure_sealevel;temperature;humidity
5679;BME280;2862;52.560;13.566;2023-03-05T00:00:40;100565.63;;;4.03;74.10
5679;BME280;2862;52.560;13.566;2023-03-05T00:10:42;100554.75;;;3.77;79.16
5679;BME280;2862;52.560;13.566;2023-03-05T00:20:48;100542.22;;;3.81;83.25
5679;BME280;2862;52.560;13.566;2023-03-05T00:30:51;100527.94;;;3.53;90.14
5679;BME280;2862;52.560;13.566;2023-03-05T00:40:55;100518.06;;;3.41;93.87
5679;BME280;2862;52.560;13.566;2023-03-05T00:50:58;100496.94;;;3.25;96.46
5679;BME280;2862;52.560;13.566;2023-03-05T01:01:04;100489.47;;;3.17;96.13
5679;BME280;2862;52.560;13.566;2023-03-05T01:11:09;100470.28;;;3.14;94.67
5679;BME280;2862;52.560;13.566;2023-03-05T01:21:13;100456.91;;;3.01;93.25
5679;BME280;2862;52.560;13.566;2023-03-05T01:31:16;100457.94;;;2.99;91.25
5679;BME280;2862;52.560;13.566;2023-03-05T01:41:21;100446.84;;;2.92;89.06
5679;BME280;2862;52.560;13.566;2023-03-05T01:51:26;100442.09;;;2.99;84.63
5679;BME280;2862;52.560;13.566;2023-03-05T02:01:36;100439.38;;;2.84;81.60
5679;BME280;2862;52.560;13.566;2023-03-05T02:11:41;100430.59;;;2.84;78.80
5679;BME280;2862;52.560;13.566;2023-03-05T02:21:47;100420.13;;;2.82;76.71
5679;BME280;2862;52.560;13.566;2023-03-05T02:31:50;100420.47;;;2.76;75.21
5679;BME280;2862;52.560;13.566;2023-03-05T02:41:55;100407.78;;;2.83;73.73
5679;BME280;2862;52.560;13.566;2023-03-05T02:51:59;100392.44;;;2.74;72.38
5679;BME280;2862;52.560;13.566;2023-03-05T03:02:03;100385.22;;;2.61;72.38
5679;BME280;2862;52.560;13.566;2023-03-05T03:12:06;100377.81;;;2.52;72.36
5679;BME280;2862;52.560;13.566;2023-03-05T03:22:13;100366.41;;;2.67;71.95
5679;BME280;2862;52.560;13.566;2023-03-05T03:32:16;100350.41;;;2.55;72.16
5679;BME280;2862;52.560;13.566;2023-03-05T03:42:22;100344.53;;;2.50;73.12
5679;BME280;2862;52.560;13.566;2023-03-05T03:52:26;100334.81;;;2.50;72.33
5679;BME280;2862;52.560;13.566;2023-03-05T04:02:29;100327.75;;;2.51;72.19
5679;BME280;2862;52.560;13.566;2023-03-05T04:12:33;100314.81;;;2.46;73.45
5679;BME280;2862;52.560;13.566;2023-03-05T04:22:37;100304.94;;;2.50;75.32
5679;BME280;2862;52.560;13.566;2023-03-05T04:32:40;100309.72;;;2.43;76.72
5679;BME280;2862;52.560;13.566;2023-03-05T04:42:44;100297.03;;;2.34;78.16
5679;BME280;2862;52.560;13.566;2023-03-05T04:52:48;100289.22;;;2.32;79.13
5679;BME280;2862;52.560;13.566;2023-03-05T05:02:52;100286.84;;;2.28;79.97
5679;BME280;2862;52.560;13.566;2023-03-05T05:12:55;100282.25;;;2.16;81.06
5679;BME280;2862;52.560;13.566;2023-03-05T05:22:59;100280.06;;;2.24;81.04
5679;BME280;2862;52.560;13.566;2023-03-05T05:33:02;100277.81;;;2.16;81.76
5679;BME280;2862;52.560;13.566;2023-03-05T05:43:07;100273.34;;;2.18;81.76
5679;BME280;2862;52.560;13.566;2023-03-05T05:53:10;100286.31;;;2.05;82.56
5679;BME280;2862;52.560;13.566;2023-03-05T06:03:15;100280.66;;;2.13;82.52
5679;BME280;2862;52.560;13.566;2023-03-05T06:13:18;100288.97;;;2.05;83.23
5679;BME280;2862;52.560;13.566;2023-03-05T06:23:22;100281.75;;;2.25;82.77
5679;BME280;2862;52.560;13.566;2023-03-05T06:33:26;100276.50;;;2.71;81.00
5679;BME280;2862;52.560;13.566;2023-03-05T06:43:31;100260.06;;;8.13;58.37
5679;BME280;2862;52.560;13.566;2023-03-05T06:53:36;100257.03;;;9.77;52.04
5679;BME280;2862;52.560;13.566;2023-03-05T07:03:40;100267.97;;;6.42;63.07
5679;BME280;2862;52.560;13.566;2023-03-05T07:13:45;100269.06;;;5.01;68.01
5679;BME280;2862;52.560;13.566;2023-03-05T07:23:49;100287.59;;;4.61;70.26
5679;BME280;2862;52.560;13.566;2023-03-05T07:33:54;100286.22;;;4.14;71.11
5679;BME280;2862;52.560;13.566;2023-03-05T07:43:59;100287.44;;;4.50;69.72
5679;BME280;2862;52.560;13.566;2023-03-05T07:54:08;100282.13;;;5.68;70.56
5679;BME280;2862;52.560;13.566;2023-03-05T08:04:16;100287.16;;;6.93;64.01
5679;BME280;2862;52.560;13.566;2023-03-05T08:14:21;100277.97;;;5.76;62.09
5679;BME280;2862;52.560;13.566;2023-03-05T08:24:25;100274.59;;;5.23;63.98
5679;BME280;2862;52.560;13.566;2023-03-05T08:34:30;100259.50;;;5.88;61.91
5679;BME280;2862;52.560;13.566;2023-03-05T08:44:44;100255.00;;;5.51;61.45
5679;BME280;2862;52.560;13.566;2023-03-05T08:54:46;100240.81;;;6.38;59.42
5679;BME280;2862;52.560;13.566;2023-03-05T09:04:54;100226.81;;;7.18;54.07
5679;BME280;2862;52.560;13.566;2023-03-05T09:14:58;100224.13;;;8.08;50.55
5679;BME280;2862;52.560;13.566;2023-03-05T09:25:04;100220.03;;;6.68;52.05
5679;BME280;2862;52.560;13.566;2023-03-05T09:35:08;100211.00;;;5.36;55.73
5679;BME280;2862;52.560;13.566;2023-03-05T09:45:20;100201.56;;;5.19;54.65
5679;BME280;2862;52.560;13.566;2023-03-05T09:55:28;100206.63;;;5.48;53.60
5679;BME280;2862;52.560;13.566;2023-03-05T10:05:52;100200.53;;;5.71;53.81
5679;BME280;2862;52.560;13.566;2023-03-05T10:16:03;100196.00;;;5.60;56.07
5679;BME280;2862;52.560;13.566;2023-03-05T10:26:17;100190.72;;;5.48;58.72
5679;BME280;2862;52.560;13.566;2023-03-05T10:36:36;100191.25;;;5.53;58.89
5679;BME280;2862;52.560;13.566;2023-03-05T10:46:48;100184.06;;;5.29;56.54
5679;BME280;2862;52.560;13.566;2023-03-05T10:57:02;100168.94;;;5.55;56.80
5679;BME280;2862;52.560;13.566;2023-03-05T11:07:28;100172.28;;;5.83;56.52
5679;BME280;2862;52.560;13.566;2023-03-05T11:17:34;100186.44;;;4.56;61.69
5679;BME280;2862;52.560;13.566;2023-03-05T11:27:44;100172.88;;;4.08;74.00
5679;BME280;2862;52.560;13.566;2023-03-05T11:37:59;100159.56;;;4.62;70.95
5679;BME280;2862;52.560;13.566;2023-03-05T11:48:09;100154.81;;;5.18;66.41
5679;BME280;2862;52.560;13.566;2023-03-05T11:58:23;100138.34;;;5.75;61.60
5679;BME280;2862;52.560;13.566;2023-03-05T12:08:31;100118.31;;;6.08;59.01
5679;BME280;2862;52.560;13.566;2023-03-05T12:18:41;100096.16;;;6.20;56.03
5679;BME280;2862;52.560;13.566;2023-03-05T12:28:56;100086.47;;;6.08;55.92
5679;BME280;2862;52.560;13.566;2023-03-05T12:38:59;100077.16;;;5.90;56.41
5679;BME280;2862;52.560;13.566;2023-03-05T12:49:28;100072.09;;;5.86;53.96
5679;BME280;2862;52.560;13.566;2023-03-05T12:59:41;100065.31;;;6.06;52.94
5679;BME280;2862;52.560;13.566;2023-03-05T13:09:52;100069.44;;;5.86;52.04
5679;BME280;2862;52.560;13.566;2023-03-05T13:19:57;100056.19;;;5.86;52.92
5679;BME280;2862;52.560;13.566;2023-03-05T13:30:01;100051.72;;;5.87;51.62
5679;BME280;2862;52.560;13.566;2023-03-05T13:40:21;100059.22;;;5.09;53.86
5679;BME280;2862;52.560;13.566;2023-03-05T13:50:31;100051.44;;;4.56;57.64
5679;BME280;2862;52.560;13.566;2023-03-05T14:00:36;100058.63;;;4.54;58.02
5679;BME280;2862;52.560;13.566;2023-03-05T14:10:41;100051.84;;;4.37;58.19
5679;BME280;2862;52.560;13.566;2023-03-05T14:21:00;100045.91;;;4.34;56.98
5679;BME280;2862;52.560;13.566;2023-03-05T14:31:11;100036.72;;;4.65;56.64
5679;BME280;2862;52.560;13.566;2023-03-05T14:41:19;100038.28;;;4.80;56.25
5679;BME280;2862;52.560;13.566;2023-03-05T14:51:24;100030.69;;;4.37;56.67
5679;BME280;2862;52.560;13.566;2023-03-05T15:01:27;100025.78;;;4.18;58.97
5679;BME280;2862;52.560;13.566;2023-03-05T15:11:31;100007.47;;;4.28;59.23
5679;BME280;2862;52.560;13.566;2023-03-05T15:21:37;100006.88;;;4.37;59.37
5679;BME280;2862;52.560;13.566;2023-03-05T15:31:42;100003.69;;;4.45;58.94
5679;BME280;2862;52.560;13.566;2023-03-05T15:41:45;99989.06;;;4.52;59.06
5679;BME280;2862;52.560;13.566;2023-03-05T15:51:49;99987.25;;;4.52;58.80
5679;BME280;2862;52.560;13.566;2023-03-05T16:01:52;99982.09;;;4.38;59.34
5679;BME280;2862;52.560;13.566;2023-03-05T16:11:56;99957.72;;;3.95;60.52
5679;BME280;2862;52.560;13.566;2023-03-05T16:22:00;99969.25;;;3.94;60.95
5679;BME280;2862;52.560;13.566;2023-03-05T16:32:06;99973.81;;;3.79;62.99
5679;BME280;2862;52.560;13.566;2023-03-05T16:42:09;99963.78;;;3.84;64.00
5679;BME280;2862;52.560;13.566;2023-03-05T16:52:24;99959.28;;;3.72;65.38
5679;BME280;2862;52.560;13.566;2023-03-05T17:02:26;99968.25;;;3.57;66.82
5679;BME280;2862;52.560;13.566;2023-03-05T17:12:30;99972.19;;;3.64;67.27
5679;BME280;2862;52.560;13.566;2023-03-05T17:22:33;99980.50;;;3.58;67.80
5679;BME280;2862;52.560;13.566;2023-03-05T17:32:38;99973.53;;;3.57;67.99
5679;BME280;2862;52.560;13.566;2023-03-05T17:42:42;99972.16;;;3.51;68.99
5679;BME280;2862;52.560;13.566;2023-03-05T17:52:46;99961.41;;;3.27;71.12
5679;BME280;2862;52.560;13.566;2023-03-05T18:02:51;99961.44;;;3.13;72.19
5679;BME280;2862;52.560;13.566;2023-03-05T18:12:57;99950.69;;;3.16;71.29
5679;BME280;2862;52.560;13.566;2023-03-05T18:23:01;99947.94;;;3.17;70.73
5679;BME280;2862;52.560;13.566;2023-03-05T18:33:08;99946.84;;;3.07;71.28
5679;BME280;2862;52.560;13.566;2023-03-05T18:43:16;99946.72;;;2.82;72.05
5679;BME280;2862;52.560;13.566;2023-03-05T18:53:22;99935.06;;;2.72;72.29
5679;BME280;2862;52.560;13.566;2023-03-05T19:03:25;99941.66;;;2.64;72.66
5679;BME280;2862;52.560;13.566;2023-03-05T19:13:29;99932.59;;;2.69;72.80
5679;BME280;2862;52.560;13.566;2023-03-05T19:23:36;99927.41;;;2.81;72.25
5679;BME280;2862;52.560;13.566;2023-03-05T19:33:41;99921.47;;;3.05;71.46
5679;BME280;2862;52.560;13.566;2023-03-05T19:43:44;99915.03;;;3.09;71.42
5679;BME280;2862;52.560;13.566;2023-03-05T19:53:49;99916.28;;;3.03;70.37
5679;BME280;2862;52.560;13.566;2023-03-05T20:03:53;99902.88;;;3.06;70.03
5679;BME280;2862;52.560;13.566;2023-03-05T20:13:57;99893.75;;;2.98;70.08
5679;BME280;2862;52.560;13.566;2023-03-05T20:24:02;99887.22;;;3.03;70.02
5679;BME280;2862;52.560;13.566;2023-03-05T20:34:09;99890.66;;;3.18;70.03
5679;BME280;2862;52.560;13.566;2023-03-05T20:44:13;99880.09;;;3.18;70.95
5679;BME280;2862;52.560;13.566;2023-03-05T20:54:18;99870.94;;;3.24;71.46
5679;BME280;2862;52.560;13.566;2023-03-05T21:04:21;99853.28;;;3.24;71.15
5679;BME280;2862;52.560;13.566;2023-03-05T21:14:25;99845.66;;;3.19;71.30
5679;BME280;2862;52.560;13.566;2023-03-05T21:24:30;99831.53;;;3.33;71.68
5679;BME280;2862;52.560;13.566;2023-03-05T21:34:47;99826.56;;;3.29;75.03
5679;BME280;2862;52.560;13.566;2023-03-05T21:44:53;99823.50;;;3.22;74.20
5679;BME280;2862;52.560;13.566;2023-03-05T21:54:57;99804.44;;;3.04;78.55
5679;BME280;2862;52.560;13.566;2023-03-05T22:05:00;99789.81;;;2.86;83.54
5679;BME280;2862;52.560;13.566;2023-03-05T22:15:06;99778.38;;;2.73;86.69
5679;BME280;2862;52.560;13.566;2023-03-05T22:25:12;99773.09;;;2.46;91.17
5679;BME280;2862;52.560;13.566;2023-03-05T22:35:16;99746.94;;;2.43;92.10
5679;BME280;2862;52.560;13.566;2023-03-05T22:45:20;99739.06;;;2.55;93.75
5679;BME280;2862;52.560;13.566;2023-03-05T22:55:24;99725.13;;;2.53;94.27
5679;BME280;2862;52.560;13.566;2023-03-05T23:05:27;99716.41;;;2.38;96.95
5679;BME280;2862;52.560;13.566;2023-03-05T23:15:33;99695.28;;;2.26;98.26
5679;BME280;2862;52.560;13.566;2023-03-05T23:25:37;99694.19;;;2.43;96.75
5679;BME280;2862;52.560;13.566;2023-03-05T23:35:48;99696.97;;;2.27;96.31
5679;BME280;2862;52.560;13.566;2023-03-05T23:45:52;99679.09;;;2.57;95.59
5679;BME280;2862;52.560;13.566;2023-03-05T23:55:57;99665.84;;;2.72;93.81
